createdAt,value
2023-03-20T00:01:26.405Z,9.56
2023-03-20T00:03:52.934Z,9.55
2023-03-20T00:06:22.594Z,9.55
2023-03-20T00:08:51.634Z,9.55
2023-03-20T00:11:29.171Z,9.57
2023-03-20T00:14:08.209Z,9.60
2023-03-20T00:16:40.215Z,9.59
2023-03-20T00:19:13.502Z,9.61
2023-03-20T00:21:40.779Z,9.62
2023-03-20T00:24:07.875Z,9.59
2023-03-20T00:26:36.657Z,9.61
2023-03-20T00:29:04.965Z,9.61
2023-03-20T00:31:34.624Z,9.60
2023-03-20T00:34:04.024Z,9.54
2023-03-20T00:36:30.489Z,9.49
2023-03-20T00:38:59.250Z,9.50
2023-03-20T00:41:44.867Z,9.52
2023-03-20T00:44:20.610Z,9.50
2023-03-20T00:46:51.524Z,9.44
2023-03-20T00:49:20.759Z,9.45
2023-03-20T00:51:47.824Z,9.46
2023-03-20T00:54:16.473Z,9.48
2023-03-20T00:56:46.770Z,9.48
2023-03-20T00:59:19.103Z,9.49
2023-03-20T01:01:46.201Z,9.47
2023-03-20T01:04:15.381Z,9.49
2023-03-20T01:06:42.082Z,9.49
2023-03-20T01:09:08.496Z,9.49
2023-03-20T01:11:35.840Z,9.48
2023-03-20T01:14:03.348Z,9.48
2023-03-20T01:16:29.970Z,9.44
2023-03-20T01:18:56.929Z,9.38
2023-03-20T01:21:24.139Z,9.35
2023-03-20T01:23:50.630Z,9.34
2023-03-20T01:26:40.852Z,9.34
2023-03-20T01:29:18.534Z,9.32
2023-03-20T01:31:45.267Z,9.32
2023-03-20T01:34:12.115Z,9.36
2023-03-20T01:36:40.034Z,9.37
2023-03-20T01:39:06.632Z,9.37
2023-03-20T01:41:33.393Z,9.34
2023-03-20T01:44:06.707Z,9.29
2023-03-20T01:46:36.909Z,9.25
2023-03-20T01:49:21.602Z,9.27
2023-03-20T01:51:51.809Z,9.20
2023-03-20T01:54:38.121Z,9.21
2023-03-20T01:57:22.412Z,9.19
2023-03-20T02:00:00.108Z,9.20
2023-03-20T02:02:30.428Z,9.12
2023-03-20T02:05:03.282Z,9.06
2023-03-20T02:07:32.490Z,9.05
2023-03-20T02:10:04.180Z,9.07
2023-03-20T02:12:47.290Z,9.09
2023-03-20T02:15:18.620Z,9.10
2023-03-20T02:18:04.024Z,9.08
2023-03-20T02:20:57.663Z,9.07
2023-03-20T02:23:30.267Z,9.01
2023-03-20T02:26:16.329Z,8.97
2023-03-20T02:29:16.721Z,8.95
2023-03-20T02:31:58.320Z,8.93
2023-03-20T02:35:05.033Z,8.90
2023-03-20T02:37:42.331Z,8.87
2023-03-20T02:40:25.739Z,8.85
2023-03-20T02:43:06.788Z,8.85
2023-03-20T02:45:46.410Z,8.88
2023-03-20T02:48:44.080Z,8.87
2023-03-20T02:51:33.311Z,8.84
2023-03-20T02:54:18.862Z,8.84
2023-03-20T02:56:54.892Z,8.83
2023-03-20T02:59:53.269Z,8.85
2023-03-20T03:02:34.592Z,8.87
2023-03-20T03:05:09.319Z,8.86
2023-03-20T03:07:39.598Z,8.83
2023-03-20T03:10:17.984Z,8.83
2023-03-20T03:12:48.459Z,8.81
2023-03-20T03:15:39.279Z,8.81
2023-03-20T03:18:11.663Z,8.77
2023-03-20T03:20:39.563Z,8.78
2023-03-20T03:23:07.194Z,8.76
2023-03-20T03:25:38.277Z,8.73
2023-03-20T03:28:38.747Z,8.72
2023-03-20T03:31:08.132Z,8.75
2023-03-20T03:33:41.143Z,8.77
2023-03-20T03:36:44.667Z,8.77
2023-03-20T03:39:27.108Z,8.74
2023-03-20T03:42:21.586Z,8.74
2023-03-20T03:45:06.764Z,8.72
2023-03-20T03:47:53.968Z,8.71
2023-03-20T03:50:28.642Z,8.68
2023-03-20T03:53:07.902Z,8.68
2023-03-20T03:55:43.116Z,8.67
2023-03-20T03:58:31.003Z,8.70
2023-03-20T04:01:01.365Z,8.69
2023-03-20T04:03:35.399Z,8.66
2023-03-20T04:06:04.327Z,8.63
2023-03-20T04:08:30.746Z,8.61
2023-03-20T04:10:59.387Z,8.62
2023-03-20T04:13:26.057Z,8.63
2023-03-20T04:15:53.190Z,8.64
2023-03-20T04:18:19.924Z,8.54
2023-03-20T04:20:48.064Z,8.48
2023-03-20T04:23:16.076Z,8.46
2023-03-20T04:25:42.664Z,8.46
2023-03-20T04:28:09.188Z,8.50
2023-03-20T04:30:48.103Z,8.50
2023-03-20T04:33:26.381Z,8.45
2023-03-20T04:36:04.172Z,8.39
2023-03-20T04:38:30.822Z,8.38
2023-03-20T04:40:57.344Z,8.42
2023-03-20T04:43:23.780Z,8.41
2023-03-20T04:45:51.893Z,8.44
2023-03-20T04:48:18.505Z,8.40
2023-03-20T04:50:48.308Z,8.35
2023-03-20T04:53:15.860Z,8.34
2023-03-20T04:55:44.643Z,8.31
2023-03-20T04:58:12.515Z,8.35
2023-03-20T05:00:40.326Z,8.36
2023-03-20T05:03:07.107Z,8.32
2023-03-20T05:05:37.873Z,8.35
2023-03-20T05:08:06.029Z,8.30
2023-03-20T05:10:35.778Z,8.28
2023-03-20T05:13:09.035Z,8.31
2023-03-20T05:15:49.548Z,8.34
2023-03-20T05:18:36.610Z,8.34
2023-03-20T05:21:33.435Z,8.27
2023-03-20T05:23:59.860Z,8.25
2023-03-20T05:26:44.600Z,8.24
2023-03-20T05:29:46.244Z,8.16
2023-03-20T05:32:15.683Z,8.14
2023-03-20T05:35:14.530Z,8.17
2023-03-20T05:37:46.568Z,8.18
2023-03-20T05:40:25.685Z,8.11
2023-03-20T05:43:01.789Z,8.07
2023-03-20T05:45:28.365Z,8.08
2023-03-20T05:48:27.183Z,8.10
2023-03-20T05:51:08.824Z,8.15
2023-03-20T05:54:13.672Z,8.18
2023-03-20T05:57:05.848Z,8.20
2023-03-20T05:59:52.154Z,8.20
2023-03-20T06:02:37.730Z,8.13
2023-03-20T06:05:18.011Z,8.16
2023-03-20T06:07:50.330Z,8.18
2023-03-20T06:10:17.024Z,8.20
2023-03-20T06:12:43.499Z,8.16
2023-03-20T06:15:10.542Z,8.15
2023-03-20T06:17:41.305Z,8.20
2023-03-20T06:20:09.637Z,8.22
2023-03-20T06:22:36.524Z,8.16
2023-03-20T06:25:03.112Z,8.16
2023-03-20T06:27:37.611Z,8.13
2023-03-20T06:30:05.996Z,8.16
2023-03-20T06:32:35.041Z,8.20
2023-03-20T06:35:05.680Z,8.23
2023-03-20T06:37:32.570Z,8.16
2023-03-20T06:40:05.687Z,8.14
2023-03-20T06:42:32.833Z,8.16
2023-03-20T06:45:00.399Z,8.15
2023-03-20T06:47:39.018Z,8.13
2023-03-20T06:50:06.624Z,8.11
2023-03-20T06:52:36.775Z,8.11
2023-03-20T06:55:37.029Z,8.14
2023-03-20T06:58:03.506Z,8.15
2023-03-20T07:00:32.224Z,8.12
2023-03-20T07:03:02.481Z,8.15
2023-03-20T07:05:29.140Z,8.21
2023-03-20T07:07:57.404Z,8.15
2023-03-20T07:10:24.427Z,8.10
2023-03-20T07:12:52.995Z,8.13
2023-03-20T07:15:19.998Z,8.09
2023-03-20T07:17:47.503Z,8.14
2023-03-20T07:20:14.547Z,8.19
2023-03-20T07:22:41.607Z,8.17
2023-03-20T07:25:41.287Z,8.18
2023-03-20T07:28:08.903Z,8.15
2023-03-20T07:30:37.576Z,8.15
2023-03-20T07:33:05.422Z,8.13
2023-03-20T07:35:33.802Z,8.09
2023-03-20T07:38:00.511Z,8.06
2023-03-20T07:40:27.375Z,8.09
2023-03-20T07:42:57.184Z,8.17
2023-03-20T07:45:41.978Z,8.10
2023-03-20T07:48:08.523Z,8.17
2023-03-20T07:50:34.983Z,8.23
2023-03-20T07:53:01.733Z,8.15
2023-03-20T07:55:28.167Z,8.16
2023-03-20T07:57:54.569Z,8.15
2023-03-20T08:00:21.389Z,8.14
2023-03-20T08:02:48.003Z,8.18
2023-03-20T08:05:14.455Z,8.25
2023-03-20T08:07:41.077Z,8.29
2023-03-20T08:10:08.292Z,8.30
2023-03-20T08:12:34.867Z,8.32
2023-03-20T08:15:01.343Z,8.30
2023-03-20T08:17:27.844Z,8.32
2023-03-20T08:19:54.346Z,8.32
2023-03-20T08:22:21.010Z,8.35
2023-03-20T08:24:47.419Z,8.34
2023-03-20T08:27:13.907Z,8.35
2023-03-20T08:29:40.326Z,8.29
2023-03-20T08:32:06.839Z,8.28
2023-03-20T08:34:33.707Z,8.31
2023-03-20T08:37:02.368Z,8.33
2023-03-20T08:39:28.823Z,8.31
2023-03-20T08:41:55.203Z,8.32
2023-03-20T08:44:21.645Z,8.34
2023-03-20T08:46:48.163Z,8.41
2023-03-20T08:49:14.557Z,8.35
2023-03-20T08:51:41.220Z,8.32
2023-03-20T08:54:07.584Z,8.35
2023-03-20T08:56:33.979Z,8.39
2023-03-20T08:59:00.487Z,8.44
2023-03-20T09:01:35.392Z,8.47
2023-03-20T09:04:08.425Z,8.47
2023-03-20T09:06:36.974Z,8.52
2023-03-20T09:09:03.974Z,8.58
2023-03-20T09:11:31.044Z,8.60
2023-03-20T09:13:57.899Z,8.64
2023-03-20T09:16:24.349Z,8.60
2023-03-20T09:18:51.004Z,8.63
2023-03-20T09:21:17.476Z,8.58
2023-03-20T09:23:44.213Z,8.55
2023-03-20T09:26:10.751Z,8.53
2023-03-20T09:28:37.157Z,8.63
2023-03-20T09:31:03.733Z,8.64
2023-03-20T09:33:30.275Z,8.63
2023-03-20T09:35:56.756Z,8.62
2023-03-20T09:38:24.273Z,8.65
2023-03-20T09:40:53.862Z,8.64
2023-03-20T09:43:47.526Z,8.65
2023-03-20T09:46:35.593Z,8.69
2023-03-20T09:49:25.389Z,8.75
2023-03-20T09:51:57.009Z,8.76
2023-03-20T09:54:53.523Z,8.73
2023-03-20T09:57:26.903Z,8.73
2023-03-20T09:59:59.142Z,8.75
2023-03-20T10:02:39.449Z,8.74
2023-03-20T10:05:17.232Z,8.78
2023-03-20T10:07:43.679Z,8.73
2023-03-20T10:10:14.772Z,8.78
2023-03-20T10:12:49.966Z,8.74
2023-03-20T10:15:47.101Z,8.65
2023-03-20T10:18:24.717Z,8.60
2023-03-20T10:21:00.373Z,8.62
2023-03-20T10:23:41.370Z,8.63
2023-03-20T10:26:17.631Z,8.61
2023-03-20T10:28:47.120Z,8.60
2023-03-20T10:31:34.943Z,8.63
2023-03-20T10:34:16.317Z,8.59
2023-03-20T10:37:18.188Z,8.64
2023-03-20T10:40:10.722Z,8.60
2023-03-20T10:42:41.229Z,8.61
2023-03-20T10:45:21.368Z,8.68
2023-03-20T10:47:51.978Z,8.70
2023-03-20T10:50:23.199Z,8.69
2023-03-20T10:52:55.241Z,8.66
2023-03-20T10:55:30.922Z,8.65
2023-03-20T10:58:19.259Z,8.65
2023-03-20T11:00:45.710Z,8.64
2023-03-20T11:03:23.300Z,8.73
2023-03-20T11:06:08.919Z,8.65
2023-03-20T11:08:40.169Z,8.57
2023-03-20T11:11:06.654Z,8.58
2023-03-20T11:13:35.777Z,8.64
2023-03-20T11:16:21.591Z,8.72
2023-03-20T11:18:49.415Z,8.75
2023-03-20T11:21:20.235Z,8.73
2023-03-20T11:23:47.352Z,8.67
2023-03-20T11:26:16.706Z,8.67
2023-03-20T11:29:00.514Z,8.70
2023-03-20T11:31:36.340Z,8.70
2023-03-20T11:34:24.319Z,8.70
2023-03-20T11:37:09.159Z,8.77
2023-03-20T11:39:37.933Z,8.77
2023-03-20T11:42:05.824Z,8.77
2023-03-20T11:44:35.616Z,8.74
2023-03-20T11:47:11.952Z,8.77
2023-03-20T11:49:53.806Z,8.81
2023-03-20T11:52:24.936Z,8.84
2023-03-20T11:54:58.647Z,8.88
2023-03-20T11:57:33.197Z,8.87
2023-03-20T12:00:07.824Z,8.86
2023-03-20T12:02:36.297Z,8.95
2023-03-20T12:05:33.946Z,8.99
2023-03-20T12:08:17.646Z,8.97
2023-03-20T12:10:55.532Z,9.02
2023-03-20T12:13:27.329Z,8.98
2023-03-20T12:16:01.431Z,8.99
2023-03-20T12:18:43.054Z,8.97
2023-03-20T12:21:33.272Z,8.94
2023-03-20T12:24:08.028Z,8.91
2023-03-20T12:27:12.060Z,8.85
2023-03-20T12:29:54.582Z,8.84
2023-03-20T12:33:02.781Z,8.90
2023-03-20T12:35:31.942Z,8.89
2023-03-20T12:37:59.396Z,8.94
2023-03-20T12:40:37.246Z,8.89
2023-03-20T12:43:15.241Z,8.90
2023-03-20T12:45:56.648Z,8.89
2023-03-20T12:48:47.238Z,8.98
2023-03-20T12:51:32.997Z,8.99
2023-03-20T12:54:27.797Z,8.91
2023-03-20T12:57:13.486Z,8.88
2023-03-20T13:00:08.101Z,8.98
2023-03-20T13:02:58.935Z,9.02
2023-03-20T13:05:43.354Z,9.08
2023-03-20T13:08:43.272Z,9.05
2023-03-20T13:11:36.203Z,9.03
2023-03-20T13:14:11.349Z,9.04
2023-03-20T13:16:51.597Z,9.09
2023-03-20T13:19:39.565Z,9.17
2023-03-20T13:22:19.127Z,9.12
2023-03-20T13:24:50.513Z,9.16
2023-03-20T13:27:38.313Z,9.18
2023-03-20T13:30:34.472Z,9.16
2023-03-20T13:33:45.977Z,9.15
2023-03-20T13:36:19.192Z,9.18
2023-03-20T13:38:52.177Z,9.16
2023-03-20T13:41:18.602Z,9.19
2023-03-20T13:43:57.181Z,9.27
2023-03-20T13:46:49.160Z,9.30
2023-03-20T13:49:44.660Z,9.29
2023-03-20T13:52:18.234Z,9.25
2023-03-20T13:54:58.981Z,9.21
2023-03-20T13:57:59.547Z,9.22
2023-03-20T14:00:46.980Z,9.22
2023-03-20T14:03:28.987Z,9.22
2023-03-20T14:05:55.742Z,9.20
2023-03-20T14:08:28.056Z,9.20
2023-03-20T14:11:05.122Z,9.21
2023-03-20T14:13:32.895Z,9.22
2023-03-20T14:16:02.906Z,9.21
2023-03-20T14:18:31.126Z,9.21
2023-03-20T14:21:00.778Z,9.26
2023-03-20T14:23:35.474Z,9.31
2023-03-20T14:26:08.031Z,9.29
2023-03-20T14:28:54.397Z,9.30
2023-03-20T14:31:30.427Z,9.30
2023-03-20T14:34:12.155Z,9.24
2023-03-20T14:36:44.576Z,9.28
2023-03-20T14:39:40.718Z,9.31
2023-03-20T14:42:19.410Z,9.30
2023-03-20T14:45:07.192Z,9.35
2023-03-20T14:47:42.477Z,9.38
2023-03-20T14:50:15.033Z,9.40
2023-03-20T14:52:52.704Z,9.38
2023-03-20T14:55:24.767Z,9.39
2023-03-20T14:57:56.969Z,9.44
2023-03-20T15:00:28.152Z,9.43
2023-03-20T15:03:02.296Z,9.40
2023-03-20T15:05:32.706Z,9.43
2023-03-20T15:08:07.288Z,9.41
2023-03-20T15:10:46.615Z,9.45
2023-03-20T15:13:14.678Z,9.47
2023-03-20T15:15:59.731Z,9.50
2023-03-20T15:18:27.526Z,9.51
2023-03-20T15:20:57.812Z,9.52
2023-03-20T15:23:26.042Z,9.51
2023-03-20T15:25:52.944Z,9.53
2023-03-20T15:28:23.551Z,9.57
2023-03-20T15:30:53.475Z,9.53
2023-03-20T15:33:22.367Z,9.57
2023-03-20T15:35:49.879Z,9.59
2023-03-20T15:38:18.136Z,9.59
2023-03-20T15:40:51.111Z,9.58
2023-03-20T15:43:24.253Z,9.62
2023-03-20T15:46:03.036Z,9.63
2023-03-20T15:48:33.131Z,9.65
2023-03-20T15:51:04.943Z,9.63
2023-03-20T15:53:33.257Z,9.62
2023-03-20T15:56:18.782Z,9.61
2023-03-20T15:58:48.948Z,9.65
2023-03-20T16:01:21.398Z,9.62
2023-03-20T16:03:48.836Z,9.61
2023-03-20T16:06:19.449Z,9.61
2023-03-20T16:09:02.519Z,9.63
2023-03-20T16:11:40.383Z,9.67
2023-03-20T16:14:21.016Z,9.69
2023-03-20T16:16:50.221Z,9.68
2023-03-20T16:19:17.618Z,9.68
2023-03-20T16:21:52.608Z,9.70
2023-03-20T16:24:25.694Z,9.60
2023-03-20T16:26:54.045Z,9.62
2023-03-20T16:29:22.834Z,9.67
2023-03-20T16:31:55.399Z,9.69
2023-03-20T16:34:25.759Z,9.72
2023-03-20T16:36:58.225Z,9.64
2023-03-20T16:39:28.419Z,9.63
2023-03-20T16:42:02.702Z,9.65
2023-03-20T16:44:35.309Z,9.66
2023-03-20T16:47:17.140Z,9.62
2023-03-20T16:49:54.162Z,9.64
2023-03-20T16:52:27.774Z,9.68
2023-03-20T16:54:57.324Z,9.69
2023-03-20T16:57:25.737Z,9.66
2023-03-20T16:59:57.378Z,9.71
2023-03-20T17:02:28.501Z,9.70
2023-03-20T17:04:57.475Z,9.62
2023-03-20T17:07:27.978Z,9.60
2023-03-20T17:09:59.137Z,9.65
2023-03-20T17:12:31.040Z,9.66
2023-03-20T17:14:57.477Z,9.66
2023-03-20T17:17:25.052Z,9.72
2023-03-20T17:19:51.853Z,9.68
2023-03-20T17:22:25.879Z,9.72
2023-03-20T17:24:52.565Z,9.76
2023-03-20T17:27:20.278Z,9.77
2023-03-20T17:29:49.683Z,9.79
2023-03-20T17:32:19.197Z,9.82
2023-03-20T17:34:45.811Z,9.82
2023-03-20T17:37:22.437Z,9.76
2023-03-20T17:39:48.888Z,9.76
2023-03-20T17:42:20.459Z,9.76
2023-03-20T17:44:48.170Z,9.76
2023-03-20T17:47:21.785Z,9.78
2023-03-20T17:49:48.993Z,9.71
2023-03-20T17:52:17.912Z,9.70
2023-03-20T17:54:45.407Z,9.66
2023-03-20T17:57:22.180Z,9.71
2023-03-20T17:59:50.060Z,9.69
2023-03-20T18:02:20.813Z,9.70
2023-03-20T18:04:47.337Z,9.72
2023-03-20T18:07:14.861Z,9.75
2023-03-20T18:09:42.703Z,9.74
2023-03-20T18:12:12.575Z,9.75
2023-03-20T18:14:40.659Z,9.76
2023-03-20T18:17:07.367Z,9.76
2023-03-20T18:19:34.609Z,9.74
2023-03-20T18:22:01.144Z,9.72
2023-03-20T18:24:27.601Z,9.66
2023-03-20T18:26:54.550Z,9.61
2023-03-20T18:29:21.468Z,9.69
2023-03-20T18:31:49.108Z,9.73
2023-03-20T18:34:16.298Z,9.75
2023-03-20T18:36:43.797Z,9.78
2023-03-20T18:39:16.989Z,9.78
2023-03-20T18:41:44.017Z,9.78
2023-03-20T18:44:10.693Z,9.76
2023-03-20T18:46:37.206Z,9.76
2023-03-20T18:49:03.756Z,9.77
2023-03-20T18:51:30.366Z,9.77
2023-03-20T18:53:56.792Z,9.72
2023-03-20T18:56:26.237Z,9.74
2023-03-20T18:58:53.941Z,9.72
2023-03-20T19:01:21.353Z,9.72
2023-03-20T19:03:48.193Z,9.72
2023-03-20T19:06:16.428Z,9.72
2023-03-20T19:08:43.968Z,9.73
2023-03-20T19:11:15.071Z,9.76
2023-03-20T19:13:49.164Z,9.79
2023-03-20T19:16:34.861Z,9.81
2023-03-20T19:19:03.901Z,9.73
2023-03-20T19:21:32.136Z,9.72
2023-03-20T19:24:01.260Z,9.73
2023-03-20T19:26:29.662Z,9.69
2023-03-20T19:28:58.566Z,9.65
2023-03-20T19:31:25.925Z,9.71
2023-03-20T19:33:53.191Z,9.70
2023-03-20T19:36:32.018Z,9.68
2023-03-20T19:39:00.295Z,9.69
2023-03-20T19:41:28.500Z,9.68
2023-03-20T19:43:55.981Z,9.63
2023-03-20T19:46:41.403Z,9.65
2023-03-20T19:49:18.131Z,9.70
2023-03-20T19:51:45.284Z,9.68
2023-03-20T19:54:12.034Z,9.70
2023-03-20T19:56:38.483Z,9.70
2023-03-20T19:59:05.887Z,9.65
2023-03-20T20:01:32.439Z,9.63
2023-03-20T20:03:59.096Z,9.66
2023-03-20T20:06:31.286Z,9.69
2023-03-20T20:08:59.248Z,9.69
2023-03-20T20:11:25.642Z,9.65
2023-03-20T20:14:09.357Z,9.69
2023-03-20T20:16:39.363Z,9.67
2023-03-20T20:19:06.238Z,9.68
2023-03-20T20:24:19.141Z,9.71
2023-03-20T20:26:55.427Z,9.73
2023-03-20T20:29:26.789Z,9.64
2023-03-20T20:31:53.395Z,9.65
2023-03-20T20:37:53.812Z,9.68
2023-03-20T20:39:53.264Z,9.68
2023-03-20T20:42:20.499Z,9.66
2023-03-20T20:44:47.431Z,9.60
2023-03-20T20:47:15.232Z,9.64
2023-03-20T20:49:42.079Z,9.65
2023-03-20T20:52:09.428Z,9.65
2023-03-20T20:54:36.061Z,9.65
2023-03-20T20:57:02.853Z,9.65
2023-03-20T20:59:29.477Z,9.71
2023-03-20T21:01:56.431Z,9.66
2023-03-20T21:04:22.993Z,9.66
2023-03-20T21:07:09.830Z,9.67
2023-03-20T21:09:35.808Z,9.72
2023-03-20T21:12:03.553Z,9.67
2023-03-20T21:14:30.311Z,9.65
2023-03-20T21:17:00.815Z,9.71
2023-03-20T21:19:29.379Z,9.69
2023-03-20T21:21:55.746Z,9.68
2023-03-20T21:24:32.020Z,9.63
2023-03-20T21:26:59.787Z,9.67
2023-03-20T21:29:26.631Z,9.63
2023-03-20T21:31:53.358Z,9.62
2023-03-20T21:34:19.930Z,9.66
2023-03-20T21:36:49.098Z,9.70
2023-03-20T21:39:17.004Z,9.67
2023-03-20T21:41:43.801Z,9.66
2023-03-20T21:44:17.115Z,9.69
2023-03-20T21:47:33.259Z,9.73
2023-03-20T21:58:33.184Z,9.58
2023-03-20T22:04:37.623Z,9.64
2023-03-20T22:07:07.244Z,9.66
2023-03-20T22:12:28.219Z,9.63
2023-03-20T22:23:43.363Z,9.61
2023-03-20T22:26:33.975Z,9.64
2023-03-20T22:45:11.443Z,9.71
2023-03-20T22:47:38.080Z,9.67
2023-03-20T22:50:05.265Z,9.69
2023-03-20T22:52:47.635Z,9.71
2023-03-20T22:55:17.305Z,9.75
2023-03-20T22:57:56.140Z,9.74
2023-03-20T23:00:30.528Z,9.75
2023-03-20T23:03:06.650Z,9.73
2023-03-20T23:05:40.811Z,9.75
2023-03-20T23:08:08.564Z,9.72
2023-03-20T23:10:37.771Z,9.75
2023-03-20T23:13:04.803Z,9.75
2023-03-20T23:15:31.890Z,9.73
2023-03-20T23:17:58.455Z,9.76
2023-03-20T23:20:25.308Z,9.73
2023-03-20T23:22:51.733Z,9.77
2023-03-20T23:25:36.081Z,9.77
2023-03-20T23:28:06.136Z,9.76
2023-03-20T23:30:41.990Z,9.78
2023-03-20T23:33:11.591Z,9.74
2023-03-20T23:35:38.103Z,9.75
2023-03-20T23:38:04.628Z,9.76
2023-03-20T23:40:31.082Z,9.78
2023-03-20T23:42:57.599Z,9.79
2023-03-20T23:45:24.073Z,9.80
2023-03-20T23:47:50.933Z,9.78
2023-03-20T23:50:27.711Z,9.79
2023-03-20T23:53:06.478Z,9.79
2023-03-20T23:55:40.816Z,9.76
2023-03-20T23:58:07.609Z,9.78
